Terminal Aerodrome Forecast
Issued by NWS

Home | Current Version | Previous Version | Graphics & Text | Print | Product List | Glossary On
Versions: 1 2 3 4 5 6 7 8 9 10 11 12 13 14
000
FTUS43 KICT 210522
TAFRSL
TAF
KRSL 210522Z 2106/2206 18027G34KT P6SM BKN110
     FM211300 21016G24KT P6SM SCT015 BKN025
     FM211700 32015G22KT P6SM SCT035 SCT100
     FM220200 34009KT P6SM FEW200=

USA.gov is the U.S. government's official web portal to all federal, state and local government web resources and services.